Time;durP1;ratioP1;P1;durP2;ratioP2;P2;SDS_P1;SDS_P2;PMS_P1;PMS_P2;Temp;Humidity;BMP_temperature;BMP_pressure;BME280_temperature;BME280_humidity;BME280_pressure;Samples;Min_cycle;Max_cycle;Signal;HPM_P1;HPM_P2
2023/09/24 00:02:19;;;;;;;4.43;1.70;;;16.60;55.00;;;;;;4965786;28;20518;-57
2023/09/24 00:04:48;;;;;;;5.15;2.25;;;16.50;55.00;;;;;;4966837;28;20058;-58
2023/09/24 00:07:16;;;;;;;4.95;2.05;;;16.50;55.00;;;;;;4967446;28;20059;-57
2023/09/24 00:09:43;;;;;;;6.20;1.90;;;16.50;55.10;;;;;;4966554;28;21836;-58
2023/09/24 00:12:10;;;;;;;2.63;1.13;;;16.50;55.10;;;;;;4966632;28;20062;-57
2023/09/24 00:14:38;;;;;;;2.30;1.00;;;16.40;55.00;;;;;;4966460;28;20054;-57
2023/09/24 00:17:05;;;;;;;2.85;1.00;;;16.40;55.10;;;;;;4966130;28;20530;-58
2023/09/24 00:19:33;;;;;;;3.00;1.05;;;16.40;55.10;;;;;;4967910;28;20057;-58
2023/09/24 00:22:02;;;;;;;3.05;0.80;;;16.40;55.10;;;;;;4965918;28;20073;-57
2023/09/24 00:24:29;;;;;;;2.65;0.95;;;16.30;55.00;;;;;;4967640;28;20054;-58
2023/09/24 00:26:57;;;;;;;2.55;1.10;;;16.30;55.00;;;;;;4965772;28;20058;-58
2023/09/24 00:29:24;;;;;;;3.28;1.25;;;16.20;55.00;;;;;;4965260;28;20055;-58
2023/09/24 00:31:51;;;;;;;2.40;0.95;;;16.20;55.10;;;;;;4966803;28;20065;-58
2023/09/24 00:34:18;;;;;;;3.55;1.05;;;16.20;55.20;;;;;;4966275;28;20058;-57
2023/09/24 00:36:46;;;;;;;3.00;1.00;;;16.10;55.20;;;;;;4968106;28;20077;-56
2023/09/24 00:39:16;;;;;;;2.58;0.90;;;16.10;55.30;;;;;;4965491;28;20050;-58
2023/09/24 00:41:45;;;;;;;2.13;1.10;;;16.10;55.30;;;;;;4966034;28;20519;-58
2023/09/24 00:44:14;;;;;;;5.53;1.10;;;16.00;55.20;;;;;;4965551;28;20057;-58
2023/09/24 00:46:42;;;;;;;2.72;0.95;;;16.00;55.20;;;;;;4965565;28;20062;-54
2023/09/24 00:49:09;;;;;;;5.45;1.33;;;16.00;55.20;;;;;;4966251;28;20062;-55
2023/09/24 00:51:36;;;;;;;4.22;1.17;;;16.00;55.30;;;;;;4964757;28;20054;-56
2023/09/24 00:54:04;;;;;;;3.13;1.15;;;16.00;55.40;;;;;;4964596;28;20530;-54
2023/09/24 00:56:33;;;;;;;1.85;1.02;;;15.90;55.40;;;;;;4967584;28;20064;-55
2023/09/24 00:59:01;;;;;;;3.78;1.00;;;15.90;55.50;;;;;;4964986;28;20061;-54
2023/09/24 01:01:31;;;;;;;2.17;0.93;;;15.90;55.50;;;;;;4975692;23;20058;-87
2023/09/24 01:03:59;;;;;;;4.82;0.88;;;15.90;55.50;;;;;;4982475;28;20065;-85
2023/09/24 01:06:26;;;;;;;1.65;0.77;;;15.80;55.50;;;;;;4984351;28;20421;-87
2023/09/24 01:08:53;;;;;;;2.35;0.90;;;15.80;55.50;;;;;;4983450;28;20425;-85
2023/09/24 01:11:22;;;;;;;1.48;0.70;;;15.80;55.50;;;;;;4983790;28;20517;-86
2023/09/24 01:13:50;;;;;;;1.98;0.98;;;15.70;55.50;;;;;;4985036;28;20054;-87
2023/09/24 01:16:17;;;;;;;1.73;0.77;;;15.70;55.50;;;;;;4987465;28;20050;-86
2023/09/24 01:18:45;;;;;;;4.43;1.25;;;15.70;55.50;;;;;;4983991;28;20054;-89
2023/09/24 01:21:15;;;;;;;2.75;1.08;;;15.70;55.60;;;;;;4983939;28;20054;-86
2023/09/24 01:23:45;;;;;;;2.67;1.13;;;15.70;55.60;;;;;;4983408;28;20059;-90
2023/09/24 01:26:13;;;;;;;3.70;0.95;;;15.60;55.60;;;;;;4983395;28;20508;-87
2023/09/24 01:28:43;;;;;;;4.80;1.63;;;15.60;55.60;;;;;;4982176;28;20057;-85
2023/09/24 01:31:11;;;;;;;2.47;1.05;;;15.60;55.60;;;;;;4982997;28;20382;-86
2023/09/24 01:33:39;;;;;;;2.92;1.10;;;15.60;55.60;;;;;;4983400;28;20054;-86
2023/09/24 01:36:08;;;;;;;3.53;1.20;;;15.60;55.70;;;;;;4983556;28;20429;-85
2023/09/24 01:38:36;;;;;;;4.00;1.30;;;15.50;55.70;;;;;;4983236;28;20051;-84
2023/09/24 01:41:07;;;;;;;1.52;1.00;;;15.50;55.70;;;;;;4982764;28;20065;-87
2023/09/24 01:43:34;;;;;;;3.95;1.27;;;15.50;55.70;;;;;;4983006;28;20426;-87
2023/09/24 01:46:05;;;;;;;4.10;1.13;;;15.40;56.20;;;;;;4982027;28;20173;-88
2023/09/24 01:48:33;;;;;;;2.33;0.80;;;15.40;55.80;;;;;;4983999;28;20057;-85
2023/09/24 01:51:06;;;;;;;2.10;0.90;;;15.40;55.80;;;;;;4984199;28;20073;-85
2023/09/24 01:53:35;;;;;;;1.90;0.90;;;15.40;55.90;;;;;;4987258;28;20517;-84
2023/09/24 01:56:04;;;;;;;4.25;1.10;;;15.40;55.90;;;;;;4987794;28;20382;-85
2023/09/24 01:58:33;;;;;;;3.95;0.95;;;15.40;55.90;;;;;;4986881;28;20418;-87
2023/09/24 02:01:02;;;;;;;4.28;1.02;;;15.30;56.00;;;;;;4985832;28;20054;-85
2023/09/24 02:03:29;;;;;;;2.75;0.98;;;15.30;56.00;;;;;;4986069;28;20055;-89
2023/09/24 02:05:57;;;;;;;2.88;1.10;;;15.30;56.00;;;;;;4988531;28;20053;-85
2023/09/24 02:08:25;;;;;;;2.72;1.00;;;15.20;56.00;;;;;;4987292;28;20054;-86
2023/09/24 02:10:53;;;;;;;2.42;0.90;;;15.20;56.10;;;;;;4992982;28;20050;-85
2023/09/24 02:13:21;;;;;;;2.92;1.00;;;15.20;56.10;;;;;;4987413;28;20065;-86
2023/09/24 02:15:50;;;;;;;1.73;0.80;;;15.20;56.10;;;;;;4983952;28;20061;-87
2023/09/24 02:18:17;;;;;;;2.25;0.93;;;15.20;56.10;;;;;;4985920;28;20057;-85
2023/09/24 02:20:47;;;;;;;2.03;1.08;;;15.20;56.10;;;;;;4986417;28;20545;-88
2023/09/24 02:23:15;;;;;;;2.63;1.15;;;15.10;56.00;;;;;;4986940;28;20061;-85
2023/09/24 02:25:44;;;;;;;2.70;1.17;;;15.10;56.00;;;;;;4991559;28;20050;-88
2023/09/24 02:28:12;;;;;;;4.50;1.30;;;15.10;56.00;;;;;;4986723;28;20498;-85
2023/09/24 02:30:40;;;;;;;2.78;1.00;;;15.10;56.50;;;;;;4985692;28;20054;-86
2023/09/24 02:33:09;;;;;;;2.47;0.90;;;15.00;55.90;;;;;;4986170;28;20057;-86
2023/09/24 02:35:36;;;;;;;2.88;1.20;;;15.00;56.00;;;;;;4986761;28;20414;-85
2023/09/24 02:38:07;;;;;;;2.20;1.05;;;15.00;56.00;;;;;;4987277;28;20525;-88
2023/09/24 02:40:34;;;;;;;2.30;1.15;;;15.00;56.10;;;;;;4986963;28;20050;-86
2023/09/24 02:43:03;;;;;;;2.15;1.10;;;15.00;56.00;;;;;;4985488;28;20054;-86
2023/09/24 02:45:31;;;;;;;1.88;0.88;;;14.90;56.00;;;;;;4984831;28;20502;-85
2023/09/24 02:47:58;;;;;;;2.13;0.85;;;14.90;56.00;;;;;;4985880;28;20050;-87
2023/09/24 02:50:29;;;;;;;2.78;0.63;;;14.90;56.10;;;;;;4986641;28;20054;-86
2023/09/24 02:52:58;;;;;;;2.40;1.20;;;14.80;56.10;;;;;;4986058;28;20552;-87
2023/09/24 02:55:27;;;;;;;3.30;1.17;;;14.80;56.10;;;;;;4986587;28;20061;-88
2023/09/24 02:57:55;;;;;;;2.33;0.98;;;14.80;56.20;;;;;;4986066;28;20058;-89
2023/09/24 03:00:33;;;;;;;4.55;1.10;;;14.80;56.20;;;;;;4984656;28;20054;-85
2023/09/24 03:03:00;;;;;;;2.63;0.90;;;14.80;56.20;;;;;;4984288;28;20059;-85
2023/09/24 03:05:29;;;;;;;2.47;0.90;;;14.70;56.10;;;;;;4985490;28;20061;-86
2023/09/24 03:08:00;;;;;;;2.97;1.00;;;14.70;56.10;;;;;;4984688;28;20057;-85
2023/09/24 03:10:30;;;;;;;1.98;1.00;;;14.70;56.10;;;;;;4985923;28;20053;-86
2023/09/24 03:12:58;;;;;;;2.85;1.05;;;14.70;56.20;;;;;;4986886;28;20062;-86
2023/09/24 03:15:26;;;;;;;4.13;1.10;;;14.60;56.20;;;;;;4984478;28;20137;-86
2023/09/24 03:17:54;;;;;;;1.70;0.90;;;14.60;56.20;;;;;;4986516;28;20074;-84
2023/09/24 03:20:22;;;;;;;1.35;0.90;;;14.60;56.30;;;;;;4985867;28;20054;-85
2023/09/24 03:22:53;;;;;;;4.85;1.40;;;14.50;56.20;;;;;;4986269;28;20062;-92
2023/09/24 03:25:22;;;;;;;1.65;0.77;;;14.60;56.30;;;;;;4985285;28;20058;-88
2023/09/24 03:27:51;;;;;;;2.38;1.20;;;14.50;56.30;;;;;;4986959;28;20062;-93
2023/09/24 03:30:19;;;;;;;3.70;1.10;;;14.50;56.30;;;;;;4985536;28;20062;-93
2023/09/24 03:32:47;;;;;;;1.52;0.90;;;14.50;56.30;;;;;;4986474;28;20050;-92
2023/09/24 03:35:17;;;;;;;4.50;1.20;;;14.40;56.30;;;;;;4985320;28;20418;-94
2023/09/24 03:37:45;;;;;;;1.77;1.00;;;14.40;56.30;;;;;;4985243;28;20061;-92
2023/09/24 03:40:15;;;;;;;1.70;0.80;;;14.40;56.40;;;;;;4988033;28;20049;-90
2023/09/24 03:42:44;;;;;;;4.40;0.98;;;14.40;56.40;;;;;;4989700;28;20065;-91
2023/09/24 03:45:13;;;;;;;2.05;1.20;;;14.40;56.40;;;;;;4992114;28;20433;-91
2023/09/24 03:47:41;;;;;;;1.83;1.05;;;14.40;56.40;;;;;;4989282;28;20046;-91
2023/09/24 03:50:13;;;;;;;1.50;0.90;;;14.30;56.40;;;;;;5017531;23;20042;-56
2023/09/24 03:52:40;;;;;;;4.50;1.05;;;14.30;56.50;;;;;;5020476;28;20049;-53
2023/09/24 03:55:09;;;;;;;4.10;1.30;;;14.30;56.50;;;;;;5020266;28;20417;-51
2023/09/24 03:57:38;;;;;;;3.83;1.30;;;14.30;56.50;;;;;;5018220;28;20416;-57
2023/09/24 04:00:10;;;;;;;2.67;1.25;;;14.30;56.60;;;;;;5020157;28;20501;-54
2023/09/24 04:02:39;;;;;;;2.00;1.00;;;14.20;56.50;;;;;;5021896;28;20046;-54
2023/09/24 04:05:08;;;;;;;2.83;1.33;;;14.20;56.50;;;;;;5022206;28;20064;-56
2023/09/24 04:07:38;;;;;;;2.92;1.25;;;14.20;56.60;;;;;;5022454;28;20057;-53
2023/09/24 04:10:08;;;;;;;1.67;1.08;;;14.20;56.60;;;;;;5021930;28;20532;-53
2023/09/24 04:12:37;;;;;;;2.70;1.20;;;14.20;56.70;;;;;;5020135;28;20408;-52
2023/09/24 04:15:06;;;;;;;2.40;1.02;;;14.20;56.80;;;;;;5020833;28;20064;-53
2023/09/24 04:17:33;;;;;;;2.35;1.10;;;14.20;56.80;;;;;;5019286;28;20052;-53
2023/09/24 04:20:00;;;;;;;2.80;1.23;;;14.10;56.80;;;;;;5020649;28;20049;-55
2023/09/24 04:22:27;;;;;;;2.58;1.40;;;14.10;56.90;;;;;;5021098;28;20053;-53
2023/09/24 04:24:55;;;;;;;2.22;1.55;;;14.10;56.90;;;;;;5019540;28;20061;-55
2023/09/24 04:27:22;;;;;;;1.13;0.93;;;14.10;56.90;;;;;;5021883;28;20053;-54
2023/09/24 04:29:51;;;;;;;1.63;1.45;;;14.10;56.90;;;;;;5021263;28;20053;-56
2023/09/24 04:32:18;;;;;;;11.30;5.78;;;14.10;56.90;;;;;;5020542;28;20049;-56
2023/09/24 04:34:46;;;;;;;39.85;19.48;;;14.10;56.90;;;;;;5021308;28;20061;-55
2023/09/24 04:37:16;;;;;;;10.55;6.25;;;14.10;56.90;;;;;;5019513;28;20053;-56
2023/09/24 04:39:46;;;;;;;4.50;2.67;;;14.10;57.00;;;;;;5003669;28;20409;-57
2023/09/24 04:42:15;;;;;;;3.10;1.48;;;14.10;57.00;;;;;;5021478;28;20056;-55
2023/09/24 04:44:42;;;;;;;1.60;1.38;;;14.10;56.90;;;;;;5018930;28;20049;-56
2023/09/24 04:47:11;;;;;;;2.42;1.60;;;14.10;56.90;;;;;;5021030;28;20547;-55
2023/09/24 04:49:38;;;;;;;2.05;1.42;;;14.10;57.00;;;;;;5019256;28;20404;-55
2023/09/24 04:52:05;;;;;;;2.97;1.35;;;14.10;57.00;;;;;;5021245;28;20060;-55
2023/09/24 04:54:33;;;;;;;2.22;1.50;;;14.00;56.90;;;;;;5021247;28;20053;-55
2023/09/24 04:57:00;;;;;;;2.45;1.30;;;14.00;56.90;;;;;;5020502;28;20132;-56
2023/09/24 04:59:27;;;;;;;2.22;1.35;;;14.00;56.90;;;;;;5021358;28;20068;-56
2023/09/24 05:01:54;;;;;;;2.97;1.40;;;14.00;56.90;;;;;;5019346;28;20056;-55
2023/09/24 05:04:23;;;;;;;15.40;7.32;;;14.00;56.90;;;;;;5021378;28;20053;-56
2023/09/24 05:06:51;;;;;;;30.92;14.23;;;14.00;57.00;;;;;;5021308;28;20058;-55
2023/09/24 05:09:18;;;;;;;10.15;5.32;;;14.00;57.00;;;;;;5021239;28;20395;-56
2023/09/24 05:11:45;;;;;;;3.97;2.28;;;14.00;57.00;;;;;;5021476;28;20057;-56
2023/09/24 05:14:13;;;;;;;2.97;1.42;;;13.90;56.90;;;;;;5021605;28;20056;-54
2023/09/24 05:16:40;;;;;;;3.92;1.42;;;13.90;57.00;;;;;;5017879;28;20049;-55
2023/09/24 05:19:08;;;;;;;1.75;1.25;;;13.90;57.00;;;;;;5020641;28;20053;-56
2023/09/24 05:21:37;;;;;;;1.90;1.13;;;13.90;57.00;;;;;;5020259;28;20057;-54
2023/09/24 05:24:04;;;;;;;2.03;1.55;;;13.90;57.00;;;;;;5020819;28;20057;-55
2023/09/24 05:26:32;;;;;;;2.38;1.30;;;13.80;57.00;;;;;;5019782;28;20049;-55
2023/09/24 05:29:55;;;;;;;2.90;1.40;;;13.90;57.00;;;;;;5023356;28;20061;-56
2023/09/24 05:32:22;;;;;;;3.88;1.73;;;13.80;57.10;;;;;;5019751;28;20050;-55
2023/09/24 05:34:52;;;;;;;2.85;1.60;;;13.90;57.10;;;;;;5019956;28;20053;-57
2023/09/24 05:37:21;;;;;;;3.17;1.55;;;13.80;57.10;;;;;;5019168;28;20050;-56
2023/09/24 05:39:48;;;;;;;1.95;1.40;;;13.80;57.20;;;;;;5020731;28;20050;-53
2023/09/24 05:42:16;;;;;;;1.67;1.10;;;13.80;57.20;;;;;;5020032;28;20053;-54
2023/09/24 05:44:43;;;;;;;2.58;1.55;;;13.80;57.30;;;;;;5019580;28;20060;-55
2023/09/24 05:47:11;;;;;;;3.53;1.77;;;13.80;57.30;;;;;;5020686;28;20065;-53
2023/09/24 05:49:39;;;;;;;9.95;5.38;;;13.80;57.30;;;;;;5021274;28;20053;-54
2023/09/24 05:52:06;;;;;;;5.43;3.47;;;13.80;57.30;;;;;;5019715;28;20053;-54
2023/09/24 05:54:35;;;;;;;4.47;2.47;;;13.80;57.30;;;;;;5020714;28;20536;-52
2023/09/24 05:57:03;;;;;;;4.78;2.38;;;13.80;57.40;;;;;;5019546;28;20049;-55
2023/09/24 05:59:30;;;;;;;2.80;1.52;;;13.80;57.30;;;;;;5020546;28;20061;-55
2023/09/24 06:01:58;;;;;;;2.95;1.55;;;13.80;57.40;;;;;;5020269;28;20795;-54
2023/09/24 06:04:25;;;;;;;1.83;1.45;;;13.80;57.40;;;;;;5020331;28;20494;-57
2023/09/24 06:06:52;;;;;;;1.73;1.52;;;13.80;57.50;;;;;;5019587;28;20068;-56
2023/09/24 06:09:20;;;;;;;2.50;1.67;;;13.80;57.50;;;;;;5019925;28;20425;-52
2023/09/24 06:11:49;;;;;;;3.42;1.80;;;13.80;57.60;;;;;;5019686;28;20053;-53
2023/09/24 06:14:16;;;;;;;3.55;1.70;;;13.80;57.60;;;;;;5021701;28;20512;-53
2023/09/24 06:16:43;;;;;;;2.35;1.70;;;13.80;57.60;;;;;;5019093;28;20058;-54
2023/09/24 06:19:10;;;;;;;2.53;1.40;;;13.80;57.60;;;;;;5020663;28;20052;-56
2023/09/24 06:21:38;;;;;;;1.60;1.42;;;13.80;57.60;;;;;;5019835;28;20540;-54
2023/09/24 06:24:06;;;;;;;1.90;1.33;;;13.80;57.70;;;;;;5019753;28;20053;-55
2023/09/24 06:26:35;;;;;;;1.67;1.40;;;13.80;57.80;;;;;;5021017;28;20417;-57
2023/09/24 06:29:03;;;;;;;3.15;1.20;;;13.80;57.90;;;;;;5020814;28;20421;-54
2023/09/24 06:31:32;;;;;;;2.08;1.33;;;13.80;58.00;;;;;;5015629;28;20053;-57
2023/09/24 06:34:00;;;;;;;4.13;1.50;;;13.90;58.10;;;;;;5018088;28;20064;-55
2023/09/24 06:36:27;;;;;;;4.30;1.35;;;13.80;58.10;;;;;;5019936;28;20053;-54
2023/09/24 06:38:56;;;;;;;2.78;1.55;;;13.90;58.20;;;;;;5024489;28;20073;-53
2023/09/24 06:41:23;;;;;;;2.92;1.85;;;13.90;58.20;;;;;;5022094;28;20053;-55
2023/09/24 06:43:50;;;;;;;2.65;1.40;;;13.90;58.20;;;;;;5018109;28;20053;-55
2023/09/24 06:46:19;;;;;;;2.00;1.42;;;13.90;58.20;;;;;;5022106;28;20054;-56
2023/09/24 06:48:46;;;;;;;2.38;1.30;;;13.90;58.20;;;;;;5023772;28;20061;-57
2023/09/24 06:51:14;;;;;;;1.52;1.30;;;14.00;58.30;;;;;;5022890;28;20042;-57
2023/09/24 06:53:41;;;;;;;2.55;1.15;;;14.00;58.30;;;;;;5022275;28;20057;-56
2023/09/24 06:56:09;;;;;;;3.03;1.30;;;14.00;58.40;;;;;;5020232;28;20056;-56
2023/09/24 06:58:37;;;;;;;2.13;1.10;;;14.00;58.40;;;;;;5022252;28;20505;-57
2023/09/24 07:01:06;;;;;;;1.52;1.25;;;14.10;58.40;;;;;;5018072;28;20076;-57
2023/09/24 07:03:34;;;;;;;3.83;1.55;;;14.10;59.00;;;;;;5020961;28;20401;-57
2023/09/24 07:06:04;;;;;;;1.10;0.90;;;14.10;59.10;;;;;;5020380;28;20049;-54
2023/09/24 07:08:33;;;;;;;1.83;1.40;;;14.20;58.60;;;;;;5021748;28;20053;-56
2023/09/24 07:11:24;;;;;;;1.80;1.10;;;14.20;58.70;;;;;;5021906;28;20060;-57
2023/09/24 07:13:51;;;;;;;1.17;0.77;;;14.20;58.80;;;;;;5021637;28;20049;-57
2023/09/24 07:16:22;;;;;;;1.27;1.10;;;14.20;58.70;;;;;;5020773;28;20056;-56
2023/09/24 07:18:52;;;;;;;2.20;1.10;;;14.30;58.70;;;;;;5020683;28;21153;-56
2023/09/24 07:21:20;;;;;;;1.67;1.20;;;14.30;58.70;;;;;;5021181;28;20053;-57
2023/09/24 07:23:51;;;;;;;1.80;1.35;;;14.30;58.70;;;;;;5020940;28;20065;-56
2023/09/24 07:26:18;;;;;;;2.60;1.17;;;14.30;58.70;;;;;;5021389;28;20049;-56
2023/09/24 07:28:46;;;;;;;21.95;9.95;;;14.40;58.70;;;;;;5021146;28;20077;-56
2023/09/24 07:31:15;;;;;;;50.22;24.80;;;14.40;58.70;;;;;;5020816;28;20057;-56
2023/09/24 07:33:44;;;;;;;17.88;8.88;;;14.40;58.70;;;;;;5018877;28;20424;-56
2023/09/24 07:36:13;;;;;;;8.30;3.78;;;14.40;58.80;;;;;;5018040;28;22137;-57
2023/09/24 07:38:40;;;;;;;3.45;2.00;;;14.50;58.80;;;;;;5021059;28;20390;-56
2023/09/24 07:41:08;;;;;;;3.22;1.55;;;14.50;58.80;;;;;;5019854;28;20049;-57
2023/09/24 07:43:36;;;;;;;2.70;1.50;;;14.50;58.90;;;;;;5017821;28;20058;-57
2023/09/24 07:46:04;;;;;;;2.20;1.70;;;14.60;59.00;;;;;;5019777;28;20057;-57
2023/09/24 07:48:31;;;;;;;1.58;1.38;;;14.60;59.00;;;;;;5018563;28;20049;-56
2023/09/24 07:51:00;;;;;;;2.97;1.42;;;14.60;59.00;;;;;;5018480;28;20543;-57
2023/09/24 07:53:29;;;;;;;2.80;1.23;;;14.70;59.00;;;;;;5018963;28;20540;-57
2023/09/24 07:55:56;;;;;;;1.90;1.30;;;14.70;59.00;;;;;;5019002;28;20049;-57
2023/09/24 07:58:24;;;;;;;2.97;1.83;;;14.70;59.00;;;;;;5019734;28;20052;-56
2023/09/24 08:00:52;;;;;;;7.38;3.30;;;14.80;59.10;;;;;;5019916;28;20513;-54
2023/09/24 08:03:20;;;;;;;3.50;2.25;;;14.80;59.10;;;;;;5021040;28;20053;-57
2023/09/24 08:05:47;;;;;;;2.22;1.50;;;14.80;59.10;;;;;;5023580;28;20064;-55
2023/09/24 08:08:15;;;;;;;4.00;1.40;;;14.90;59.30;;;;;;5022946;28;20061;-56
2023/09/24 08:10:44;;;;;;;2.63;1.25;;;14.90;59.40;;;;;;5022396;28;20160;-57
2023/09/24 08:13:11;;;;;;;2.53;1.17;;;15.00;59.50;;;;;;5022436;28;20057;-57
2023/09/24 08:15:38;;;;;;;2.25;1.10;;;15.00;59.50;;;;;;5019516;28;20528;-56
2023/09/24 08:18:08;;;;;;;3.38;1.00;;;15.10;59.60;;;;;;5021990;28;20057;-55
2023/09/24 08:20:37;;;;;;;1.48;1.08;;;15.10;59.60;;;;;;5023353;28;20064;-56
2023/09/24 08:23:05;;;;;;;3.25;1.05;;;15.20;59.70;;;;;;5021464;28;20523;-56
2023/09/24 08:25:32;;;;;;;1.80;1.15;;;15.20;59.60;;;;;;5022175;28;20080;-56
2023/09/24 08:28:02;;;;;;;1.85;1.15;;;15.30;59.70;;;;;;5022320;28;20064;-56
2023/09/24 08:30:31;;;;;;;4.38;1.45;;;15.30;59.70;;;;;;5020064;28;20053;-56
2023/09/24 08:32:59;;;;;;;3.22;1.50;;;15.30;59.60;;;;;;5022049;28;20052;-56
2023/09/24 08:35:26;;;;;;;2.58;0.95;;;15.40;59.60;;;;;;5022173;28;20061;-58
2023/09/24 08:37:54;;;;;;;2.60;1.10;;;15.40;59.60;;;;;;5020499;28;20493;-55
2023/09/24 08:40:21;;;;;;;2.30;1.10;;;15.50;59.70;;;;;;5020952;28;20064;-55
2023/09/24 08:42:50;;;;;;;2.92;1.27;;;15.60;59.80;;;;;;5021566;28;20405;-56
2023/09/24 08:45:19;;;;;;;1.83;1.02;;;15.60;59.80;;;;;;5019820;28;20054;-56
2023/09/24 08:47:48;;;;;;;2.00;1.00;;;15.60;59.90;;;;;;5020916;28;20061;-56
2023/09/24 08:50:16;;;;;;;5.10;1.23;;;15.70;60.00;;;;;;5020891;28;20420;-56
2023/09/24 08:52:45;;;;;;;2.42;1.10;;;15.70;60.00;;;;;;5022397;28;20053;-58
2023/09/24 08:55:14;;;;;;;2.58;1.02;;;15.80;60.10;;;;;;5021254;28;20053;-55
2023/09/24 08:57:44;;;;;;;3.83;1.20;;;15.90;60.10;;;;;;5021428;28;20068;-56
2023/09/24 09:00:14;;;;;;;3.15;1.23;;;15.90;59.90;;;;;;5018706;28;20417;-56
2023/09/24 09:02:44;;;;;;;1.27;0.88;;;16.00;59.80;;;;;;5021088;28;20112;-56
2023/09/24 09:05:25;;;;;;;5.57;1.60;;;16.00;59.60;;;;;;5020773;28;20452;-57
2023/09/24 09:07:59;;;;;;;3.47;1.05;;;16.10;59.50;;;;;;5022070;28;20057;-57
2023/09/24 09:10:27;;;;;;;4.18;1.60;;;16.10;59.50;;;;;;5021810;28;20501;-54
2023/09/24 09:13:09;;;;;;;2.97;1.25;;;16.20;59.40;;;;;;5020583;28;20049;-57
2023/09/24 09:15:38;;;;;;;3.72;1.25;;;16.30;59.30;;;;;;5019729;28;20052;-56
2023/09/24 09:18:07;;;;;;;5.63;1.40;;;16.30;59.20;;;;;;5021579;28;20493;-57
2023/09/24 09:20:41;;;;;;;3.65;1.08;;;16.40;59.20;;;;;;5020575;28;20665;-56
2023/09/24 09:23:12;;;;;;;3.15;0.85;;;16.40;59.10;;;;;;5020830;28;20394;-57
2023/09/24 09:25:49;;;;;;;2.95;1.10;;;16.50;59.10;;;;;;5019485;28;20049;-58
2023/09/24 09:28:21;;;;;;;3.95;1.27;;;16.50;59.00;;;;;;5021636;28;20056;-53
2023/09/24 09:31:01;;;;;;;3.55;1.27;;;16.60;58.90;;;;;;5019933;28;20053;-56
2023/09/24 09:33:32;;;;;;;3.67;1.15;;;16.60;58.90;;;;;;5019288;28;20049;-54
2023/09/24 09:36:00;;;;;;;5.88;1.17;;;16.70;58.90;;;;;;5021062;28;20053;-54
2023/09/24 09:42:31;;;;;;;5.43;1.45;;;16.80;59.10;;;;;;4961059;28;20077;-55
2023/09/24 09:45:02;;;;;;;2.00;0.90;;;16.90;59.00;;;;;;4959505;28;20510;-57
2023/09/24 09:47:34;;;;;;;3.72;1.52;;;16.90;58.90;;;;;;4959398;28;20415;-57
2023/09/24 09:50:03;;;;;;;3.72;1.15;;;17.00;59.00;;;;;;4959435;28;20062;-58
2023/09/24 09:52:35;;;;;;;2.13;0.93;;;17.10;59.00;;;;;;4958519;28;20523;-57
2023/09/24 09:55:05;;;;;;;3.20;1.08;;;17.10;58.90;;;;;;4958540;28;20061;-56
2023/09/24 09:57:33;;;;;;;3.15;1.17;;;17.20;59.20;;;;;;4959833;28;20055;-56
2023/09/24 10:00:05;;;;;;;4.13;1.25;;;17.20;58.50;;;;;;5003549;28;20049;-55
2023/09/24 10:02:33;;;;;;;6.47;1.30;;;17.20;58.30;;;;;;5019743;28;20053;-55
2023/09/24 10:05:03;;;;;;;2.67;1.00;;;17.30;58.10;;;;;;5020591;28;20057;-58
2023/09/24 10:07:30;;;;;;;5.22;1.27;;;17.30;57.90;;;;;;5019135;28;20064;-57
2023/09/24 10:09:57;;;;;;;2.72;1.00;;;17.40;57.90;;;;;;5020334;28;20060;-55
2023/09/24 10:12:35;;;;;;;3.70;1.10;;;17.40;57.80;;;;;;5023584;28;20520;-57
2023/09/24 10:15:27;;;;;;;3.97;1.00;;;17.50;57.60;;;;;;5024170;28;20061;-56
2023/09/24 10:18:24;;;;;;;4.32;1.05;;;17.50;57.40;;;;;;5024911;28;20382;-57
2023/09/24 10:21:05;;;;;;;4.88;1.60;;;17.60;57.50;;;;;;5023619;28;20049;-57
2023/09/24 10:23:35;;;;;;;4.97;1.13;;;17.70;57.40;;;;;;5024945;28;20349;-56
2023/09/24 10:26:05;;;;;;;5.32;1.00;;;17.70;57.20;;;;;;5023999;28;20084;-56
2023/09/24 10:28:48;;;;;;;5.85;1.20;;;17.70;57.00;;;;;;5024483;28;20057;-56
2023/09/24 10:31:17;;;;;;;3.00;0.90;;;17.80;56.80;;;;;;5022679;28;20057;-56
2023/09/24 10:33:56;;;;;;;4.03;1.02;;;17.90;56.60;;;;;;5024202;28;20600;-55
2023/09/24 10:36:28;;;;;;;3.47;0.95;;;17.90;56.20;;;;;;5025387;28;20905;-55
2023/09/24 10:39:03;;;;;;;3.40;0.70;;;18.00;56.30;;;;;;5024909;28;20053;-57
2023/09/24 10:41:30;;;;;;;5.03;0.95;;;18.00;56.30;;;;;;5023505;28;20064;-56
2023/09/24 10:44:23;;;;;;;2.47;0.77;;;18.00;56.30;;;;;;5023771;28;20053;-54
2023/09/24 10:46:53;;;;;;;4.20;1.27;;;18.10;55.80;;;;;;5022239;28;20057;-58
2023/09/24 10:49:21;;;;;;;2.22;0.88;;;18.10;55.80;;;;;;5024479;28;20064;-56
2023/09/24 10:51:50;;;;;;;2.50;0.90;;;18.20;55.60;;;;;;5023366;28;20064;-56
2023/09/24 10:54:18;;;;;;;3.80;0.90;;;18.20;55.40;;;;;;5025384;28;20053;-56
2023/09/24 10:56:48;;;;;;;1.92;0.70;;;18.20;55.30;;;;;;5023553;28;20061;-57
2023/09/24 10:59:15;;;;;;;5.65;1.05;;;18.30;55.20;;;;;;5023226;28;20061;-55
2023/09/24 11:01:43;;;;;;;1.75;0.70;;;18.30;54.90;;;;;;5022295;28;20409;-54
2023/09/24 11:04:10;;;;;;;2.20;0.82;;;18.30;54.80;;;;;;5023705;28;20425;-56
2023/09/24 11:06:38;;;;;;;3.30;0.90;;;18.40;54.60;;;;;;5018665;28;20060;-51
2023/09/24 11:09:17;;;;;;;1.48;0.80;;;18.40;54.50;;;;;;5019917;28;20416;-52
2023/09/24 11:11:45;;;;;;;3.20;0.90;;;18.50;54.10;;;;;;5021019;28;20053;-53
2023/09/24 11:14:22;;;;;;;5.20;0.80;;;18.50;54.30;;;;;;5020600;28;20500;-55
2023/09/24 11:16:50;;;;;;;4.15;0.80;;;18.50;54.00;;;;;;5019202;28;20061;-54
2023/09/24 11:19:41;;;;;;;4.47;0.80;;;18.60;54.20;;;;;;5021816;28;20424;-54
2023/09/24 11:22:16;;;;;;;2.95;0.90;;;18.60;54.00;;;;;;5019289;28;20053;-53
2023/09/24 11:24:45;;;;;;;3.97;0.85;;;18.70;53.70;;;;;;5019748;28;20053;-55
2023/09/24 11:27:12;;;;;;;5.28;1.60;;;18.70;53.50;;;;;;5021863;28;20045;-56
2023/09/24 11:29:40;;;;;;;2.30;0.90;;;18.70;53.30;;;;;;5020434;28;20050;-51
2023/09/24 11:32:07;;;;;;;3.03;1.00;;;18.80;53.10;;;;;;5018249;28;20053;-54
2023/09/24 11:34:35;;;;;;;2.00;0.60;;;18.80;52.70;;;;;;5020731;28;20056;-52
2023/09/24 11:37:06;;;;;;;3.75;0.93;;;18.80;52.60;;;;;;5017114;28;20061;-53
2023/09/24 11:39:45;;;;;;;1.80;0.60;;;18.90;51.90;;;;;;5020587;28;20064;-57
2023/09/24 11:42:18;;;;;;;2.80;0.60;;;18.90;51.60;;;;;;5020314;28;20053;-54
2023/09/24 11:44:48;;;;;;;1.65;0.50;;;19.00;51.50;;;;;;5016391;28;20049;-54
2023/09/24 11:47:15;;;;;;;1.70;0.50;;;19.00;51.50;;;;;;5017394;28;20068;-52
2023/09/24 11:49:43;;;;;;;2.17;0.68;;;19.00;51.60;;;;;;5020955;28;20053;-55
2023/09/24 11:52:10;;;;;;;3.20;0.95;;;19.00;51.60;;;;;;5020459;28;20061;-54
2023/09/24 11:54:39;;;;;;;2.55;0.70;;;19.00;51.80;;;;;;5020899;28;20052;-54
2023/09/24 11:57:09;;;;;;;1.48;0.70;;;19.10;51.90;;;;;;5019609;28;20494;-57
2023/09/24 11:59:37;;;;;;;3.00;0.93;;;19.10;51.80;;;;;;5018645;28;20054;-55
2023/09/24 12:02:04;;;;;;;2.20;0.70;;;19.10;51.60;;;;;;5017039;28;20060;-55
2023/09/24 12:04:31;;;;;;;1.98;0.77;;;19.20;51.30;;;;;;5019295;28;20516;-56
2023/09/24 12:06:58;;;;;;;2.85;1.08;;;19.20;51.00;;;;;;5020161;28;20058;-51
2023/09/24 12:09:26;;;;;;;1.90;0.50;;;19.20;50.70;;;;;;5018471;28;20429;-55
2023/09/24 12:11:53;;;;;;;3.78;0.77;;;19.30;50.80;;;;;;5019480;28;20060;-54
2023/09/24 12:14:22;;;;;;;1.25;0.60;;;19.30;51.00;;;;;;5019909;28;20528;-55
2023/09/24 12:16:49;;;;;;;2.05;0.90;;;19.30;50.80;;;;;;5019984;28;20050;-54
2023/09/24 12:19:16;;;;;;;1.27;0.40;;;19.30;50.70;;;;;;5016814;28;20409;-54
2023/09/24 12:21:43;;;;;;;2.72;0.50;;;19.40;50.90;;;;;;5017675;28;20072;-53
2023/09/24 12:24:10;;;;;;;1.25;0.50;;;19.40;50.40;;;;;;5019408;28;20049;-54
2023/09/24 12:26:38;;;;;;;2.33;0.60;;;19.40;50.20;;;;;;5019273;28;20064;-54
2023/09/24 12:29:05;;;;;;;4.22;0.68;;;19.40;50.10;;;;;;5020470;28;20046;-53
2023/09/24 12:31:35;;;;;;;1.30;0.55;;;19.50;49.70;;;;;;5017960;28;20504;-54
2023/09/24 12:34:02;;;;;;;3.47;0.75;;;19.50;49.50;;;;;;5018661;28;20057;-53
2023/09/24 12:36:30;;;;;;;1.95;0.70;;;19.50;49.60;;;;;;5021337;28;20500;-53
2023/09/24 12:38:57;;;;;;;3.80;0.70;;;19.50;49.50;;;;;;5018944;28;20064;-56
2023/09/24 12:41:24;;;;;;;1.70;0.65;;;19.50;49.40;;;;;;5019948;28;20064;-53
2023/09/24 12:43:53;;;;;;;3.95;1.02;;;19.60;49.50;;;;;;5018745;28;20436;-54
2023/09/24 12:46:20;;;;;;;1.48;0.52;;;19.60;49.30;;;;;;5017839;28;20060;-54
2023/09/24 12:48:49;;;;;;;1.23;0.63;;;19.60;49.30;;;;;;5020766;28;20053;-53
2023/09/24 12:51:16;;;;;;;2.28;0.90;;;19.60;49.20;;;;;;5017952;28;20060;-56
2023/09/24 12:53:43;;;;;;;1.88;0.65;;;19.60;49.30;;;;;;5017427;28;20057;-55
2023/09/24 12:56:10;;;;;;;2.05;0.60;;;19.70;49.40;;;;;;5018013;28;20057;-55
2023/09/24 12:58:38;;;;;;;2.42;0.93;;;19.70;49.00;;;;;;5020278;28;20060;-55
2023/09/24 13:01:05;;;;;;;0.85;0.50;;;19.70;49.00;;;;;;5017664;28;20476;-52